Time;durP1;ratioP1;P1;durP2;ratioP2;P2;SDS_P1;SDS_P2;PMS_P1;PMS_P2;Temp;Humidity;BMP_temperature;BMP_pressure;BME280_temperature;BME280_humidity;BME280_pressure;Samples;Min_cycle;Max_cycle;Signal;HPM_P1;HPM_P2
2023/01/09 00:01:26;;;;;;;1.43;1.10;;;7.90;99.90;;;;;;5020388;28;20191;-60
2023/01/09 00:03:52;;;;;;;0.90;0.90;;;7.90;99.90;;;;;;5017329;28;20179;-61
2023/01/09 00:06:18;;;;;;;1.43;1.33;;;7.90;99.90;;;;;;5013919;28;20553;-61
2023/01/09 00:08:43;;;;;;;1.27;1.20;;;7.80;99.90;;;;;;5014678;28;20184;-60
2023/01/09 00:11:09;;;;;;;1.10;1.10;;;7.60;99.90;;;;;;5014620;28;20664;-61
2023/01/09 00:13:36;;;;;;;1.30;1.27;;;7.60;99.90;;;;;;5029492;28;20705;-62
2023/01/09 00:16:04;;;;;;;1.40;1.30;;;7.80;99.90;;;;;;5004882;28;20223;-60
2023/01/09 00:18:29;;;;;;;1.60;1.13;;;7.80;99.90;;;;;;5029532;28;20740;-61
2023/01/09 00:20:59;;;;;;;3.10;1.47;;;7.80;99.90;;;;;;5012278;28;20281;-61
2023/01/09 00:23:24;;;;;;;3.80;1.67;;;7.70;99.90;;;;;;5013735;28;20266;-61
2023/01/09 00:25:59;;;;;;;1.67;1.57;;;7.70;99.90;;;;;;5014046;28;20270;-61
2023/01/09 00:28:25;;;;;;;1.43;1.33;;;7.70;99.90;;;;;;5027855;28;20281;-61
2023/01/09 00:30:58;;;;;;;2.17;1.60;;;7.60;99.90;;;;;;5028910;28;20624;-61
2023/01/09 00:33:46;;;;;;;1.83;1.50;;;7.70;99.90;;;;;;5014033;28;20179;-61
2023/01/09 00:36:11;;;;;;;1.10;1.10;;;7.70;99.90;;;;;;5014999;28;20196;-61
2023/01/09 00:38:37;;;;;;;1.70;1.60;;;7.60;99.90;;;;;;5010335;28;20179;-61
2023/01/09 00:41:10;;;;;;;1.40;1.30;;;7.50;99.90;;;;;;5012973;28;20533;-60
2023/01/09 00:43:45;;;;;;;1.53;1.43;;;7.40;99.90;;;;;;5013808;28;20175;-61
2023/01/09 00:51:29;;;;;;;2.97;1.40;;;7.40;99.90;;;;;;5932003;23;20205;-69
2023/01/09 00:53:55;;;;;;;2.10;1.80;;;7.50;99.90;;;;;;4981144;28;20180;-68
2023/01/09 00:56:22;;;;;;;1.67;1.43;;;7.50;99.90;;;;;;4985570;28;20548;-68
2023/01/09 00:58:48;;;;;;;1.13;1.10;;;7.50;99.90;;;;;;4975412;28;20196;-68
2023/01/09 01:01:13;;;;;;;1.83;1.17;;;7.60;99.90;;;;;;4973161;28;20189;-68
2023/01/09 01:03:39;;;;;;;1.43;1.37;;;7.40;99.90;;;;;;4981585;28;20315;-68
2023/01/09 01:08:49;;;;;;;2.30;1.43;;;7.50;99.90;;;;;;4976040;28;20208;-68
2023/01/09 01:11:15;;;;;;;1.20;1.20;;;7.50;99.90;;;;;;4976404;28;20189;-68
2023/01/09 01:13:41;;;;;;;3.20;1.83;;;7.50;99.90;;;;;;4974726;28;20180;-68
2023/01/09 01:16:10;;;;;;;1.90;1.60;;;7.50;99.90;;;;;;4973639;28;20245;-68
2023/01/09 01:18:36;;;;;;;1.57;1.30;;;7.40;99.90;;;;;;4982083;28;20271;-68
2023/01/09 01:21:06;;;;;;;1.73;1.30;;;7.50;99.90;;;;;;4986999;28;20599;-68
2023/01/09 01:23:32;;;;;;;1.33;1.33;;;7.50;99.90;;;;;;4975234;28;20629;-68
2023/01/09 01:26:13;;;;;;;1.33;1.33;;;7.40;99.90;;;;;;4974270;28;20327;-68
2023/01/09 01:28:39;;;;;;;3.83;1.60;;;7.40;99.90;;;;;;4982623;28;20187;-68
2023/01/09 01:31:05;;;;;;;4.00;1.27;;;7.40;99.90;;;;;;4988649;28;20264;-68
2023/01/09 01:33:31;;;;;;;1.27;1.27;;;7.40;99.90;;;;;;4975148;28;20667;-68
2023/01/09 01:36:06;;;;;;;3.93;1.43;;;7.40;99.90;;;;;;4987914;28;20664;-68
2023/01/09 01:38:32;;;;;;;1.47;1.43;;;7.30;99.90;;;;;;4977645;28;20187;-68
2023/01/09 01:40:58;;;;;;;1.47;1.37;;;7.30;99.90;;;;;;4979884;28;20180;-68
2023/01/09 01:43:25;;;;;;;2.10;1.70;;;7.30;99.90;;;;;;4978905;28;20230;-68
2023/01/09 01:45:51;;;;;;;0.93;0.93;;;7.30;99.90;;;;;;4985352;28;20192;-69
2023/01/09 01:48:25;;;;;;;2.03;1.60;;;7.30;99.90;;;;;;4978963;28;20594;-68
2023/01/09 01:50:58;;;;;;;3.70;1.30;;;7.20;99.90;;;;;;4991850;28;20179;-68
2023/01/09 01:53:32;;;;;;;3.87;1.50;;;7.40;99.90;;;;;;4986267;28;20196;-68
2023/01/09 01:56:08;;;;;;;4.07;1.07;;;7.30;99.90;;;;;;4977958;28;20591;-68
2023/01/09 01:58:41;;;;;;;2.30;1.33;;;7.20;99.90;;;;;;4978281;28;20545;-68
2023/01/09 02:01:07;;;;;;;2.00;1.90;;;7.30;99.90;;;;;;4981429;28;20184;-68
2023/01/09 02:03:33;;;;;;;2.17;1.37;;;7.30;99.90;;;;;;4987855;28;20192;-69
2023/01/09 02:06:00;;;;;;;1.33;1.30;;;7.30;99.90;;;;;;4976180;28;20251;-69
2023/01/09 02:08:25;;;;;;;5.00;1.20;;;7.40;99.90;;;;;;4978263;28;20212;-69
2023/01/09 02:10:52;;;;;;;3.77;1.47;;;7.40;99.90;;;;;;4982482;28;20663;-68
2023/01/09 02:13:19;;;;;;;2.07;1.47;;;7.40;99.90;;;;;;4991626;28;20188;-69
2023/01/09 02:15:58;;;;;;;1.27;1.10;;;7.40;99.90;;;;;;4980448;28;20193;-69
2023/01/09 02:18:31;;;;;;;1.63;1.27;;;7.60;99.90;;;;;;4975537;28;20215;-69
2023/01/09 02:21:03;;;;;;;1.43;1.20;;;7.60;99.90;;;;;;4987335;28;20520;-69
2023/01/09 02:24:10;;;;;;;1.43;1.33;;;7.70;99.90;;;;;;4975999;28;20189;-69
2023/01/09 02:27:05;;;;;;;4.17;1.50;;;7.80;99.90;;;;;;4968018;28;20236;-68
2023/01/09 02:30:18;;;;;;;5.63;1.23;;;7.80;99.90;;;;;;4982268;28;20505;-69
2023/01/09 02:33:16;;;;;;;3.67;1.30;;;7.80;99.90;;;;;;4956509;28;20273;-68
2023/01/09 02:35:56;;;;;;;1.43;1.33;;;7.80;99.90;;;;;;4949174;28;20196;-68
2023/01/09 02:38:51;;;;;;;4.63;2.00;;;7.90;99.90;;;;;;4980453;28;20219;-68
2023/01/09 02:41:37;;;;;;;3.67;1.43;;;8.00;99.90;;;;;;4983280;28;20180;-68
2023/01/09 02:44:25;;;;;;;1.30;1.00;;;8.00;99.90;;;;;;4984658;28;20223;-69
2023/01/09 02:47:19;;;;;;;2.03;1.93;;;8.10;99.90;;;;;;4984198;28;20212;-69
2023/01/09 02:49:59;;;;;;;3.33;1.77;;;8.10;99.90;;;;;;4980007;28;20173;-69
2023/01/09 02:52:30;;;;;;;3.63;1.33;;;8.10;99.90;;;;;;4978667;28;20199;-69
2023/01/09 02:55:21;;;;;;;1.33;1.23;;;8.10;99.90;;;;;;4975804;28;20561;-68
2023/01/09 02:58:08;;;;;;;1.63;1.53;;;8.20;99.90;;;;;;4978905;28;20609;-68
2023/01/09 03:00:48;;;;;;;2.87;1.10;;;8.20;99.90;;;;;;4985303;28;20267;-68
2023/01/09 03:03:34;;;;;;;0.90;0.90;;;8.20;99.90;;;;;;4986306;28;20571;-69
2023/01/09 03:06:20;;;;;;;2.30;1.40;;;8.20;99.90;;;;;;4979881;28;20247;-70
2023/01/09 03:08:51;;;;;;;1.37;1.27;;;8.20;99.90;;;;;;4987813;28;20184;-68
2023/01/09 03:11:16;;;;;;;10.43;1.90;;;8.20;99.90;;;;;;4992766;28;20318;-69
2023/01/09 03:14:04;;;;;;;4.20;1.50;;;8.20;99.90;;;;;;4986335;28;20676;-68
2023/01/09 03:16:36;;;;;;;1.13;1.13;;;8.30;99.90;;;;;;4985786;28;20264;-68
2023/01/09 03:19:07;;;;;;;1.20;1.10;;;8.20;99.90;;;;;;4988047;28;20212;-68
2023/01/09 03:21:33;;;;;;;1.17;1.17;;;8.20;99.90;;;;;;4985963;28;21035;-68
2023/01/09 03:24:01;;;;;;;2.63;1.83;;;8.20;99.90;;;;;;4979704;28;20653;-68
2023/01/09 03:26:28;;;;;;;2.07;1.30;;;8.30;99.90;;;;;;4986433;28;20564;-69
2023/01/09 03:28:54;;;;;;;1.23;1.23;;;8.30;99.90;;;;;;4982023;28;20189;-69
2023/01/09 03:31:20;;;;;;;3.53;1.50;;;8.20;99.90;;;;;;4989291;28;20188;-68
2023/01/09 03:33:46;;;;;;;4.23;1.30;;;8.30;99.90;;;;;;4988805;28;20546;-68
2023/01/09 03:36:13;;;;;;;3.57;1.10;;;8.40;99.90;;;;;;4992551;28;20184;-69
2023/01/09 03:38:39;;;;;;;1.10;1.10;;;8.30;99.90;;;;;;4984697;28;20338;-68
2023/01/09 03:41:05;;;;;;;1.23;1.23;;;8.20;99.90;;;;;;4977633;28;20185;-69
2023/01/09 03:43:31;;;;;;;2.93;1.30;;;8.20;99.90;;;;;;4990419;28;20184;-69
2023/01/09 03:45:57;;;;;;;1.20;1.10;;;8.20;99.90;;;;;;4992788;28;20191;-69
2023/01/09 03:48:23;;;;;;;4.13;1.47;;;8.20;99.90;;;;;;4988132;28;20196;-68
2023/01/09 03:50:50;;;;;;;2.70;1.90;;;8.10;99.90;;;;;;4992013;28;20188;-69
2023/01/09 03:53:16;;;;;;;2.53;1.10;;;8.10;99.90;;;;;;4987138;28;20267;-68
2023/01/09 03:55:46;;;;;;;4.70;1.17;;;8.10;99.90;;;;;;4974607;28;20188;-68
2023/01/09 03:58:12;;;;;;;1.20;1.07;;;8.20;99.90;;;;;;4975413;28;20649;-68
2023/01/09 04:00:39;;;;;;;4.00;1.30;;;8.20;99.90;;;;;;4981702;28;20201;-69
2023/01/09 04:03:08;;;;;;;4.33;1.40;;;8.10;99.90;;;;;;4985327;28;20192;-69
2023/01/09 04:05:34;;;;;;;2.90;1.37;;;8.10;99.90;;;;;;4989984;28;20284;-69
2023/01/09 04:07:59;;;;;;;2.33;1.27;;;8.00;99.90;;;;;;4983782;28;20232;-68
2023/01/09 04:10:25;;;;;;;8.33;1.40;;;8.00;99.90;;;;;;4975740;28;20211;-68
2023/01/09 04:12:51;;;;;;;5.43;1.93;;;8.20;99.90;;;;;;4985797;28;20192;-69
2023/01/09 04:15:16;;;;;;;1.80;1.03;;;8.30;99.90;;;;;;4990723;28;20271;-68
2023/01/09 04:17:42;;;;;;;7.80;1.43;;;8.20;99.90;;;;;;4984775;28;20192;-68
2023/01/09 04:20:09;;;;;;;2.23;1.30;;;8.20;99.90;;;;;;4989835;28;20271;-69
2023/01/09 04:22:35;;;;;;;4.43;1.20;;;8.20;99.90;;;;;;4982606;28;20278;-69
2023/01/09 04:25:00;;;;;;;5.87;1.40;;;8.10;99.90;;;;;;4976443;28;20628;-69
2023/01/09 04:27:26;;;;;;;3.50;2.00;;;8.10;99.90;;;;;;4987597;28;20216;-70
2023/01/09 04:29:52;;;;;;;4.40;1.17;;;8.20;99.90;;;;;;4963886;28;20522;-69
2023/01/09 04:32:17;;;;;;;3.10;1.90;;;8.20;99.90;;;;;;4978095;28;20184;-69
2023/01/09 04:34:43;;;;;;;3.03;1.47;;;8.30;99.90;;;;;;4979731;28;20231;-69
2023/01/09 04:37:09;;;;;;;6.83;1.73;;;8.30;99.90;;;;;;4974847;28;20204;-68
2023/01/09 04:39:35;;;;;;;2.37;1.53;;;8.20;99.90;;;;;;4993217;28;20192;-70
2023/01/09 04:42:00;;;;;;;1.90;1.70;;;8.10;99.90;;;;;;4986706;28;20299;-69
2023/01/09 04:44:26;;;;;;;1.70;1.37;;;8.10;99.90;;;;;;4978854;28;20184;-69
2023/01/09 04:46:53;;;;;;;4.47;2.37;;;8.20;99.90;;;;;;4985973;28;20223;-70
2023/01/09 04:49:19;;;;;;;6.23;1.10;;;8.20;99.90;;;;;;4989531;28;20208;-69
2023/01/09 04:51:45;;;;;;;6.57;2.13;;;8.30;99.90;;;;;;4983505;28;20196;-68
2023/01/09 04:54:11;;;;;;;2.13;1.37;;;8.30;99.90;;;;;;4991302;28;20331;-69
2023/01/09 04:56:36;;;;;;;1.70;1.40;;;8.20;99.90;;;;;;4989259;28;20679;-69
2023/01/09 04:59:03;;;;;;;2.53;1.53;;;8.30;99.90;;;;;;4983960;28;20193;-69
2023/01/09 05:01:29;;;;;;;3.43;1.60;;;8.40;99.90;;;;;;4983574;28;20193;-69
2023/01/09 05:03:55;;;;;;;3.80;1.57;;;8.40;99.90;;;;;;4973938;28;20196;-69
2023/01/09 05:06:21;;;;;;;3.87;1.80;;;8.40;99.90;;;;;;4985879;28;20228;-69
2023/01/09 05:08:46;;;;;;;1.37;1.10;;;8.60;99.90;;;;;;4974910;28;20306;-69
2023/01/09 05:11:12;;;;;;;3.60;1.77;;;8.50;99.90;;;;;;4984374;28;20275;-70
2023/01/09 05:13:38;;;;;;;3.90;1.60;;;8.60;99.90;;;;;;4979716;28;20191;-70
2023/01/09 05:16:04;;;;;;;1.57;1.13;;;8.70;99.90;;;;;;4984047;28;20239;-70
2023/01/09 05:18:29;;;;;;;2.30;1.40;;;8.70;99.90;;;;;;4981295;28;20188;-69
2023/01/09 05:20:55;;;;;;;2.67;1.30;;;8.70;99.90;;;;;;4980763;28;20203;-69
2023/01/09 05:23:21;;;;;;;3.60;1.10;;;8.70;99.90;;;;;;4992291;28;20215;-69
2023/01/09 05:25:46;;;;;;;3.10;1.50;;;8.60;99.90;;;;;;4976825;28;20531;-69
2023/01/09 05:28:12;;;;;;;1.10;1.00;;;8.70;99.90;;;;;;4974112;28;20645;-69
2023/01/09 05:30:38;;;;;;;5.23;2.00;;;8.60;99.90;;;;;;4974817;28;20185;-69
2023/01/09 05:33:03;;;;;;;4.50;1.30;;;8.60;99.90;;;;;;4978377;28;20184;-69
2023/01/09 05:35:29;;;;;;;5.57;1.80;;;8.60;99.90;;;;;;4978279;28;20227;-69
2023/01/09 05:37:55;;;;;;;1.77;1.23;;;8.40;99.90;;;;;;4988417;28;20649;-69
2023/01/09 05:40:21;;;;;;;3.33;1.70;;;8.40;99.90;;;;;;4982505;28;20226;-69
2023/01/09 05:42:47;;;;;;;4.53;1.63;;;8.40;99.90;;;;;;4971998;28;20219;-70
2023/01/09 05:45:13;;;;;;;4.63;1.67;;;8.30;99.90;;;;;;4985641;28;20208;-69
2023/01/09 05:47:39;;;;;;;2.20;0.97;;;8.30;99.90;;;;;;4977825;28;20569;-68
2023/01/09 05:50:05;;;;;;;3.23;1.33;;;8.30;99.90;;;;;;4984577;28;20185;-69
2023/01/09 05:52:30;;;;;;;7.67;1.50;;;8.10;99.90;;;;;;4984382;28;20204;-69
2023/01/09 05:54:56;;;;;;;4.10;2.63;;;8.20;99.90;;;;;;4991063;28;20192;-69
2023/01/09 05:57:22;;;;;;;6.30;1.30;;;8.20;99.90;;;;;;4966963;28;20222;-69
2023/01/09 05:59:47;;;;;;;2.13;1.53;;;8.20;99.90;;;;;;4976246;28;20214;-68
2023/01/09 06:02:13;;;;;;;4.80;1.43;;;8.20;99.90;;;;;;4990173;28;20192;-69
2023/01/09 06:04:39;;;;;;;3.57;1.13;;;8.20;99.90;;;;;;4987506;28;20198;-68
2023/01/09 06:07:04;;;;;;;8.70;1.70;;;8.10;99.90;;;;;;4991424;28;20218;-69
2023/01/09 06:09:30;;;;;;;1.87;1.20;;;8.20;99.90;;;;;;4962140;28;20188;-65
2023/01/09 06:11:56;;;;;;;0.83;0.83;;;8.20;99.90;;;;;;4985377;28;20271;-66
2023/01/09 06:14:22;;;;;;;2.70;1.20;;;8.20;99.90;;;;;;4988140;28;20192;-67
2023/01/09 06:16:48;;;;;;;3.03;1.53;;;8.10;99.90;;;;;;4976661;28;20624;-66
2023/01/09 06:19:14;;;;;;;1.13;1.07;;;8.20;99.90;;;;;;4993809;28;20195;-65
2023/01/09 06:21:40;;;;;;;1.33;0.97;;;8.20;99.90;;;;;;4992750;28;20246;-66
2023/01/09 06:24:06;;;;;;;5.73;1.70;;;8.00;99.90;;;;;;4960185;28;20184;-65
2023/01/09 06:26:32;;;;;;;2.27;1.70;;;8.10;99.90;;;;;;4980047;28;20212;-66
2023/01/09 06:28:59;;;;;;;1.53;1.43;;;8.10;99.90;;;;;;4976191;28;20185;-65
2023/01/09 06:31:25;;;;;;;1.70;1.60;;;8.10;99.90;;;;;;4990104;28;20529;-65
2023/01/09 06:33:51;;;;;;;5.20;1.30;;;8.10;99.90;;;;;;4977818;28;20195;-66
2023/01/09 06:36:17;;;;;;;7.47;1.67;;;8.10;99.90;;;;;;4981856;28;20192;-66
2023/01/09 06:38:42;;;;;;;2.90;1.23;;;8.10;99.90;;;;;;4980972;28;20189;-65
2023/01/09 06:41:08;;;;;;;1.33;1.07;;;8.20;99.90;;;;;;4983382;28;20195;-65
2023/01/09 06:43:34;;;;;;;1.20;0.93;;;8.20;99.90;;;;;;4976530;28;20656;-65
2023/01/09 06:46:00;;;;;;;2.73;1.33;;;8.10;99.90;;;;;;4981245;28;20192;-66
2023/01/09 06:48:26;;;;;;;2.87;1.40;;;8.10;99.90;;;;;;4976994;28;20185;-66
2023/01/09 06:50:52;;;;;;;2.80;0.90;;;8.10;99.90;;;;;;4978120;28;20192;-66
2023/01/09 06:53:19;;;;;;;0.87;0.87;;;8.10;99.90;;;;;;4992437;28;20205;-66
2023/01/09 06:55:45;;;;;;;2.70;1.40;;;8.10;99.90;;;;;;4984659;28;20184;-66
2023/01/09 06:58:11;;;;;;;3.97;3.13;;;8.00;99.90;;;;;;4986501;28;20184;-67
2023/01/09 07:00:37;;;;;;;1.97;1.00;;;8.00;99.90;;;;;;4981423;28;20193;-68
2023/01/09 07:03:03;;;;;;;3.30;0.97;;;7.90;99.90;;;;;;4991779;28;20204;-66
2023/01/09 07:05:30;;;;;;;4.47;1.37;;;8.00;99.90;;;;;;4984899;28;20188;-66
2023/01/09 07:07:58;;;;;;;2.70;1.07;;;8.10;99.90;;;;;;4979975;28;20220;-66
2023/01/09 07:10:24;;;;;;;2.67;1.10;;;8.20;99.90;;;;;;4986061;28;20185;-66
2023/01/09 07:12:50;;;;;;;1.57;1.13;;;8.30;99.90;;;;;;4976320;28;20252;-65
2023/01/09 07:15:15;;;;;;;2.80;1.73;;;8.30;99.90;;;;;;4985200;28;20192;-65
2023/01/09 07:17:41;;;;;;;4.40;1.30;;;8.30;99.90;;;;;;4994329;28;20219;-68
2023/01/09 07:20:07;;;;;;;3.43;1.57;;;8.30;99.90;;;;;;4976496;28;20227;-65
2023/01/09 07:22:33;;;;;;;5.20;1.20;;;8.40;99.90;;;;;;4980843;28;20663;-65
2023/01/09 07:24:59;;;;;;;3.27;1.20;;;8.50;99.90;;;;;;4976508;28;20275;-65
2023/01/09 07:27:25;;;;;;;1.83;1.13;;;8.40;99.90;;;;;;4980396;28;20290;-65
2023/01/09 07:29:52;;;;;;;1.20;0.83;;;8.40;99.90;;;;;;4990344;28;20192;-64
2023/01/09 07:32:18;;;;;;;2.53;1.03;;;8.40;99.90;;;;;;4975874;28;20187;-65
2023/01/09 07:34:44;;;;;;;1.80;1.10;;;8.30;99.90;;;;;;4983097;28;20196;-65
2023/01/09 07:37:09;;;;;;;2.53;1.10;;;8.50;99.90;;;;;;4986425;28;20200;-65
2023/01/09 07:39:35;;;;;;;4.07;1.30;;;8.40;99.90;;;;;;4981078;28;20192;-65
2023/01/09 07:42:01;;;;;;;5.70;1.37;;;8.50;99.90;;;;;;4982836;28;20185;-65
2023/01/09 07:44:26;;;;;;;0.90;0.90;;;8.50;99.90;;;;;;4978877;28;20192;-64
2023/01/09 07:46:52;;;;;;;4.53;1.17;;;8.40;99.90;;;;;;4976086;28;20247;-64
2023/01/09 07:49:17;;;;;;;3.03;1.20;;;8.40;99.90;;;;;;4983233;28;20247;-64
2023/01/09 07:51:44;;;;;;;0.70;0.70;;;8.40;99.90;;;;;;4993998;28;20206;-65
2023/01/09 07:54:11;;;;;;;4.90;1.17;;;8.40;99.90;;;;;;4971449;28;20192;-64
2023/01/09 07:56:38;;;;;;;1.87;0.93;;;8.40;99.90;;;;;;4983021;28;20181;-65
2023/01/09 07:59:04;;;;;;;4.50;1.20;;;8.30;99.90;;;;;;4983180;28;21191;-64
2023/01/09 08:01:30;;;;;;;3.00;2.03;;;8.20;99.90;;;;;;4980694;28;20191;-64
2023/01/09 08:03:56;;;;;;;0.93;0.93;;;8.20;99.90;;;;;;4976420;28;20193;-64
2023/01/09 08:06:21;;;;;;;3.43;1.13;;;8.40;99.90;;;;;;4976271;28;20212;-64
2023/01/09 08:08:48;;;;;;;3.20;1.10;;;8.30;99.90;;;;;;4974646;28;20192;-64
2023/01/09 08:11:14;;;;;;;2.63;1.30;;;8.30;99.90;;;;;;4975342;28;20223;-65
2023/01/09 08:13:40;;;;;;;2.53;1.20;;;8.30;99.90;;;;;;4980865;28;20191;-64
2023/01/09 08:16:06;;;;;;;1.30;1.20;;;8.40;99.90;;;;;;4994519;28;20200;-65
2023/01/09 08:18:32;;;;;;;3.70;1.30;;;8.50;99.90;;;;;;4979726;28;20184;-64
2023/01/09 08:20:58;;;;;;;1.30;1.20;;;8.40;99.90;;;;;;4974420;28;20188;-65
2023/01/09 08:23:24;;;;;;;6.00;1.30;;;8.50;99.90;;;;;;4961395;28;20191;-65
2023/01/09 08:25:49;;;;;;;1.37;1.33;;;8.60;99.90;;;;;;4974962;28;20199;-64
2023/01/09 08:28:16;;;;;;;5.93;1.00;;;8.60;99.90;;;;;;4977553;28;20228;-64
2023/01/09 08:30:42;;;;;;;0.97;0.93;;;8.50;99.90;;;;;;4977906;28;20188;-65
2023/01/09 08:33:08;;;;;;;2.20;1.40;;;8.50;99.90;;;;;;4975497;28;20199;-64
2023/01/09 08:35:34;;;;;;;1.80;1.03;;;8.60;99.90;;;;;;4988629;28;20640;-65
2023/01/09 08:37:59;;;;;;;0.93;0.80;;;8.60;99.90;;;;;;4979580;28;20195;-65
2023/01/09 08:40:25;;;;;;;1.47;1.10;;;8.70;99.90;;;;;;4991599;28;20180;-64
2023/01/09 08:48:20;;;;;;;4.33;1.27;;;8.70;99.90;;;;;;4988047;28;20235;-64
2023/01/09 08:50:46;;;;;;;2.60;1.63;;;8.70;99.90;;;;;;4984123;28;20185;-64
2023/01/09 08:53:12;;;;;;;1.33;1.17;;;8.80;99.90;;;;;;4986264;28;20240;-65
2023/01/09 08:55:38;;;;;;;1.00;0.97;;;8.70;99.90;;;;;;4987204;28;20187;-64
2023/01/09 08:58:04;;;;;;;3.33;1.00;;;8.70;99.90;;;;;;4984470;28;20605;-65
2023/01/09 09:00:29;;;;;;;3.93;0.97;;;8.80;99.90;;;;;;4988266;28;20239;-64
2023/01/09 09:02:57;;;;;;;0.97;0.93;;;8.80;99.90;;;;;;4974289;28;20188;-65
2023/01/09 09:05:25;;;;;;;1.60;1.10;;;8.90;99.90;;;;;;4974719;28;20637;-65
2023/01/09 09:07:55;;;;;;;3.17;1.23;;;8.90;99.90;;;;;;4978176;28;20310;-65
2023/01/09 09:10:27;;;;;;;0.97;0.73;;;8.90;99.90;;;;;;4965885;28;20555;-64
2023/01/09 09:12:55;;;;;;;2.90;0.90;;;8.70;99.90;;;;;;4974791;28;20554;-64
2023/01/09 09:15:25;;;;;;;1.10;1.00;;;8.60;99.90;;;;;;4974152;28;20196;-64
2023/01/09 09:17:53;;;;;;;0.97;0.83;;;8.60;99.90;;;;;;4974195;28;20792;-65
2023/01/09 09:20:20;;;;;;;5.23;1.20;;;8.60;99.90;;;;;;4974015;28;20691;-64
2023/01/09 09:22:46;;;;;;;3.63;0.87;;;8.60;99.90;;;;;;4974595;28;20656;-64
2023/01/09 09:25:13;;;;;;;3.33;0.80;;;8.70;99.90;;;;;;4974579;28;20676;-65
2023/01/09 09:27:39;;;;;;;1.67;0.80;;;8.60;99.90;;;;;;4977304;28;20295;-64
2023/01/09 09:30:06;;;;;;;2.43;0.93;;;8.50;99.90;;;;;;4974718;28;20219;-65
2023/01/09 09:32:31;;;;;;;2.87;0.70;;;8.50;99.90;;;;;;4976693;28;20664;-65
2023/01/09 09:34:57;;;;;;;2.60;0.90;;;8.50;99.90;;;;;;4991499;28;20192;-65
2023/01/09 09:37:23;;;;;;;0.80;0.80;;;8.60;99.90;;;;;;4979378;28;20205;-64
2023/01/09 09:39:49;;;;;;;0.83;0.80;;;8.50;99.90;;;;;;4974262;28;20192;-64
2023/01/09 09:46:08;;;;;;;2.43;1.27;;;8.40;99.90;;;;;;4938704;28;20224;-65
2023/01/09 09:48:40;;;;;;;4.23;1.10;;;8.40;99.90;;;;;;4936140;29;20256;-64
2023/01/09 09:51:21;;;;;;;2.10;0.90;;;8.60;99.90;;;;;;4970602;28;20192;-66
2023/01/09 09:53:54;;;;;;;3.90;2.10;;;8.80;99.90;;;;;;4983647;28;20691;-66
2023/01/09 09:56:22;;;;;;;1.10;1.10;;;8.80;99.90;;;;;;4989605;28;20192;-64
2023/01/09 09:58:56;;;;;;;1.83;1.17;;;8.80;99.90;;;;;;4985022;28;20200;-64
2023/01/09 10:01:28;;;;;;;1.00;1.00;;;8.70;99.90;;;;;;4983031;28;20184;-65
2023/01/09 10:03:58;;;;;;;1.10;1.00;;;8.60;99.90;;;;;;4983108;28;20195;-65
2023/01/09 10:06:36;;;;;;;0.70;0.70;;;8.50;99.90;;;;;;4980361;28;20215;-65
2023/01/09 10:09:16;;;;;;;0.90;0.90;;;8.40;99.90;;;;;;4992073;28;20191;-65
2023/01/09 10:12:02;;;;;;;6.73;1.30;;;8.50;99.90;;;;;;4989623;28;20523;-64
2023/01/09 10:14:29;;;;;;;2.43;2.03;;;8.60;99.90;;;;;;4981229;28;20188;-66
2023/01/09 10:17:17;;;;;;;3.07;1.00;;;8.50;99.90;;;;;;4973758;28;20195;-66
2023/01/09 10:20:10;;;;;;;3.50;1.53;;;8.50;99.90;;;;;;4972662;28;20187;-64
2023/01/09 10:23:15;;;;;;;0.90;0.90;;;8.50;99.90;;;;;;4987622;28;20238;-65
2023/01/09 10:26:10;;;;;;;1.10;1.00;;;8.70;99.90;;;;;;4973275;28;20201;-64
2023/01/09 10:28:57;;;;;;;1.30;1.20;;;8.80;99.90;;;;;;4973360;28;20711;-64
2023/01/09 10:31:40;;;;;;;5.70;1.10;;;8.70;99.90;;;;;;4981098;28;20219;-64
2023/01/09 10:34:35;;;;;;;3.77;0.90;;;8.70;99.90;;;;;;4989040;28;20553;-65
2023/01/09 10:37:18;;;;;;;4.60;2.73;;;8.70;99.90;;;;;;4933837;28;20196;-65
2023/01/09 10:39:51;;;;;;;1.30;1.20;;;8.70;99.90;;;;;;4974060;28;20185;-64
2023/01/09 10:42:30;;;;;;;1.50;0.97;;;8.70;99.90;;;;;;4973202;28;20185;-65
2023/01/09 10:45:13;;;;;;;0.90;0.90;;;8.70;99.90;;;;;;4973610;28;20173;-64
2023/01/09 10:47:41;;;;;;;1.70;1.40;;;8.70;99.90;;;;;;4971637;28;20562;-64
2023/01/09 10:50:21;;;;;;;4.80;0.97;;;8.80;99.90;;;;;;4974201;28;20189;-64
2023/01/09 10:52:53;;;;;;;1.00;1.00;;;8.70;99.90;;;;;;4991192;28;20258;-64
2023/01/09 10:55:56;;;;;;;1.10;0.93;;;8.80;99.90;;;;;;4981624;28;20267;-64
2023/01/09 10:58:22;;;;;;;1.77;1.40;;;8.90;99.90;;;;;;4959413;28;20662;-64
2023/01/09 11:00:50;;;;;;;3.23;1.30;;;8.90;99.90;;;;;;4978306;28;20700;-64
2023/01/09 11:03:21;;;;;;;3.10;1.47;;;8.90;99.90;;;;;;4993176;28;20184;-65
2023/01/09 11:05:57;;;;;;;1.90;1.20;;;8.90;99.90;;;;;;4976915;28;20275;-64
2023/01/09 11:08:40;;;;;;;1.30;1.30;;;9.10;99.90;;;;;;4984293;28;20216;-64
2023/01/09 11:11:07;;;;;;;2.03;1.20;;;9.20;99.90;;;;;;4988651;28;20590;-64
2023/01/09 11:13:35;;;;;;;2.23;1.30;;;9.20;99.90;;;;;;4979895;28;20184;-63
2023/01/09 11:16:07;;;;;;;1.77;1.40;;;9.30;99.90;;;;;;4989064;28;20180;-65
2023/01/09 11:18:37;;;;;;;1.47;1.30;;;9.30;99.90;;;;;;4992673;28;20180;-64
2023/01/09 11:21:32;;;;;;;1.67;1.57;;;9.40;99.90;;;;;;4988008;28;20578;-67
2023/01/09 11:24:26;;;;;;;1.47;1.37;;;9.30;99.90;;;;;;4978012;28;20598;-64
2023/01/09 11:27:13;;;;;;;1.50;1.40;;;9.40;99.90;;;;;;4982968;28;20220;-64
2023/01/09 11:29:42;;;;;;;3.57;2.30;;;9.40;99.90;;;;;;4976506;28;20228;-64
2023/01/09 11:32:31;;;;;;;3.23;1.67;;;9.40;99.90;;;;;;4981007;28;20220;-64
2023/01/09 11:34:57;;;;;;;4.50;2.03;;;9.20;99.90;;;;;;4982186;28;20208;-66
2023/01/09 11:37:30;;;;;;;2.10;1.90;;;8.90;99.90;;;;;;4989292;28;20192;-64
2023/01/09 11:39:59;;;;;;;2.00;1.90;;;9.00;99.90;;;;;;4978604;28;20212;-64
2023/01/09 11:45:18;;;;;;;1.50;1.43;;;9.20;99.90;;;;;;4976299;28;20210;-64
2023/01/09 11:47:45;;;;;;;1.90;1.80;;;9.10;99.90;;;;;;4990062;28;20323;-63
2023/01/09 11:50:24;;;;;;;4.47;2.17;;;9.00;99.90;;;;;;4988524;28;20188;-65
2023/01/09 11:53:16;;;;;;;5.13;2.07;;;9.10;99.90;;;;;;4989588;28;20673;-64
2023/01/09 11:55:46;;;;;;;2.17;2.00;;;9.30;99.90;;;;;;4986443;28;20191;-63
2023/01/09 11:58:17;;;;;;;4.30;2.00;;;9.50;99.90;;;;;;4992536;28;20196;-64
2023/01/09 12:01:12;;;;;;;1.80;1.70;;;9.50;99.90;;;;;;4990139;28;20260;-64
2023/01/09 12:04:29;;;;;;;4.90;2.43;;;9.50;99.90;;;;;;4977346;28;20551;-64
2023/01/09 12:07:00;;;;;;;4.07;2.30;;;9.60;99.90;;;;;;4960559;28;20228;-62
2023/01/09 12:09:44;;;;;;;5.53;2.60;;;9.70;99.90;;;;;;4977048;28;20197;-64
2023/01/09 12:12:36;;;;;;;2.87;1.87;;;9.60;99.90;;;;;;4983720;28;20185;-62
2023/01/09 12:15:20;;;;;;;2.10;1.90;;;9.70;99.90;;;;;;4990612;28;20656;-65
2023/01/09 12:17:51;;;;;;;6.13;2.10;;;9.70;99.90;;;;;;4974122;28;20199;-62
2023/01/09 12:20:29;;;;;;;3.27;1.77;;;9.80;99.90;;;;;;4975296;28;20646;-62
2023/01/09 12:23:24;;;;;;;3.63;2.10;;;9.90;99.90;;;;;;4975709;28;20184;-62
2023/01/09 12:26:02;;;;;;;5.03;2.70;;;10.00;99.90;;;;;;4967892;28;20688;-62
2023/01/09 12:28:49;;;;;;;3.27;2.37;;;10.00;99.90;;;;;;4983308;28;20215;-62
2023/01/09 12:31:24;;;;;;;3.13;1.83;;;10.00;99.90;;;;;;4976379;28;20189;-63
2023/01/09 12:34:07;;;;;;;3.30;2.13;;;10.10;99.90;;;;;;4990109;28;20809;-62
2023/01/09 12:37:10;;;;;;;4.33;2.57;;;10.20;99.90;;;;;;4975458;28;20200;-62
2023/01/09 12:39:55;;;;;;;3.13;2.20;;;10.20;99.90;;;;;;4986311;28;20184;-62
2023/01/09 12:42:39;;;;;;;5.70;3.17;;;10.20;99.90;;;;;;4973410;28;20185;-63
2023/01/09 12:45:27;;;;;;;3.60;2.70;;;10.20;99.90;;;;;;4979935;28;20192;-63
2023/01/09 12:48:15;;;;;;;3.05;1.92;;;10.20;99.90;;;;;;4980148;28;20281;-63
2023/01/09 12:51:02;;;;;;;3.05;2.35;;;10.30;99.90;;;;;;4962814;28;21083;-65
2023/01/09 12:53:39;;;;;;;3.80;2.55;;;10.50;99.90;;;;;;4982724;28;20195;-62
2023/01/09 12:56:13;;;;;;;2.47;2.28;;;10.40;99.90;;;;;;4988230;28;20222;-63
2023/01/09 12:58:52;;;;;;;5.07;2.72;;;10.40;99.90;;;;;;4976138;28;20247;-62
2023/01/09 13:01:29;;;;;;;4.30;2.67;;;10.40;99.90;;;;;;4989705;28;20183;-62
2023/01/09 13:03:54;;;;;;;4.47;2.90;;;10.40;99.90;;;;;;4982285;28;20235;-62
2023/01/09 13:06:23;;;;;;;8.10;2.70;;;10.40;99.90;;;;;;4982677;28;21496;-62
2023/01/09 13:09:19;;;;;;;8.77;4.27;;;10.40;99.90;;;;;;4985683;28;20200;-62
2023/01/09 13:12:00;;;;;;;4.85;3.38;;;10.30;99.90;;;;;;4984721;28;20215;-63
2023/01/09 13:14:29;;;;;;;4.78;3.00;;;10.20;99.90;;;;;;4974395;28;20271;-64
2023/01/09 13:16:55;;;;;;;5.97;3.47;;;10.20;99.90;;;;;;4974488;28;20239;-62
2023/01/09 13:19:41;;;;;;;2.47;2.28;;;10.40;99.90;;;;;;4974770;28;20676;-62
2023/01/09 13:22:07;;;;;;;7.78;2.78;;;10.50;99.90;;;;;;4972777;28;20196;-63
2023/01/09 13:25:01;;;;;;;7.45;3.00;;;10.60;99.90;;;;;;4975103;28;20192;-62
2023/01/09 13:27:33;;;;;;;5.00;2.67;;;10.60;99.90;;;;;;4976391;28;20211;-63
2023/01/09 13:30:18;;;;;;;3.92;2.50;;;10.50;99.90;;;;;;4974357;28;20185;-63
2023/01/09 13:33:01;;;;;;;4.85;2.60;;;10.60;99.90;;;;;;4978994;28;20278;-62
2023/01/09 13:35:27;;;;;;;3.70;2.10;;;10.40;99.90;;;;;;4975448;28;20180;-62
2023/01/09 13:37:53;;;;;;;5.22;2.30;;;10.50;99.90;;;;;;4984540;28;20684;-62